Time;durP1;ratioP1;P1;durP2;ratioP2;P2;SDS_P1;SDS_P2;PMS_P1;PMS_P2;Temp;Humidity;BMP_temperature;BMP_pressure;BME280_temperature;BME280_humidity;BME280_pressure;Samples;Min_cycle;Max_cycle;Signal;HPM_P1;HPM_P2
2021/07/31 00:01:58;;;;;;;;;;;;;;;32.39;35.69;99433.12;4402554;32;33717;-90
2021/07/31 00:04:26;;;;;;;;;;;;;;;32.58;35.38;99438.84;4402171;32;34693;-89
2021/07/31 00:06:53;;;;;;;;;;;;;;;32.56;35.54;99438.19;4402222;32;34803;-89
2021/07/31 00:09:21;;;;;;;;;;;;;;;32.70;35.21;99439.94;4401831;32;33400;-89
2021/07/31 00:11:49;;;;;;;;;;;;;;;33.09;34.41;99445.75;4402485;32;32605;-89
2021/07/31 00:14:17;;;;;;;;;;;;;;;33.04;34.43;99456.31;4402564;32;33895;-89
2021/07/31 00:16:46;;;;;;;;;;;;;;;32.88;34.65;99463.72;4402420;32;34001;-89
2021/07/31 00:19:14;;;;;;;;;;;;;;;32.84;34.77;99458.91;4402570;32;33919;-89
2021/07/31 00:21:41;;;;;;;;;;;;;;;32.71;34.98;99459.63;4385739;32;911872;-89
2021/07/31 00:24:09;;;;;;;;;;;;;;;31.73;36.91;99458.47;4403897;32;34098;-89
2021/07/31 00:26:36;;;;;;;;;;;;;;;32.68;35.12;99455.47;4402205;32;35075;-89
2021/07/31 00:29:04;;;;;;;;;;;;;;;32.60;35.28;99456.47;4401012;32;35581;-89
2021/07/31 00:31:31;;;;;;;;;;;;;;;32.70;35.10;99455.28;4401472;32;34333;-89
2021/07/31 00:34:02;;;;;;;;;;;;;;;32.80;34.83;99450.38;4400769;32;34794;-89
2021/07/31 00:36:29;;;;;;;;;;;;;;;32.78;34.75;99444.37;4401991;32;34732;-89
2021/07/31 00:38:57;;;;;;;;;;;;;;;31.79;36.63;99448.75;4402018;32;34655;-90
2021/07/31 00:41:24;;;;;;;;;;;;;;;32.02;36.16;99435.09;4414414;32;33649;-89
2021/07/31 00:43:52;;;;;;;;;;;;;;;31.90;36.53;99426.72;4402074;32;34787;-89
2021/07/31 00:46:20;;;;;;;;;;;;;;;31.91;36.81;99428.38;4401750;32;36510;-89
2021/07/31 00:48:49;;;;;;;;;;;;;;;32.43;36.12;99426.31;4401666;32;35494;-89
2021/07/31 00:51:16;;;;;;;;;;;;;;;31.95;37.15;99437.75;4401676;32;34743;-89
2021/07/31 00:53:44;;;;;;;;;;;;;;;32.08;36.88;99430.78;4388930;32;36001;-89
2021/07/31 00:56:12;;;;;;;;;;;;;;;32.22;36.18;99427.19;4401614;32;34456;-89
2021/07/31 00:58:40;;;;;;;;;;;;;;;32.14;36.15;99424.63;4388485;32;34314;-89
2021/07/31 01:01:09;;;;;;;;;;;;;;;32.51;35.59;99424.47;4414648;32;32109;-89
2021/07/31 01:03:40;;;;;;;;;;;;;;;32.42;35.60;99418.41;4401478;32;33401;-89
2021/07/31 01:06:08;;;;;;;;;;;;;;;32.49;35.35;99418.47;4401380;32;34111;-90
2021/07/31 01:08:36;;;;;;;;;;;;;;;32.82;34.68;99413.25;4391064;32;34568;-88
2021/07/31 01:11:04;;;;;;;;;;;;;;;32.73;34.85;99409.06;4403991;32;34116;-89
2021/07/31 01:13:32;;;;;;;;;;;;;;;32.87;34.57;99410.78;4379183;32;35670;-88
2021/07/31 01:16:01;;;;;;;;;;;;;;;32.80;34.68;99401.81;4404046;32;35414;-89
2021/07/31 01:18:30;;;;;;;;;;;;;;;32.97;34.29;99397.78;4416306;32;34159;-89
2021/07/31 01:20:58;;;;;;;;;;;;;;;32.88;34.45;99398.97;4416648;32;34609;-89
2021/07/31 01:23:26;;;;;;;;;;;;;;;32.86;34.52;99392.94;4404071;32;35594;-89
2021/07/31 01:25:54;;;;;;;;;;;;;;;32.46;35.22;99396.25;4404220;32;34862;-89
2021/07/31 01:28:22;;;;;;;;;;;;;;;32.28;35.65;99395.91;4391096;32;34747;-89
2021/07/31 01:30:51;;;;;;;;;;;;;;;30.08;40.53;99395.91;4403416;32;33675;-89
2021/07/31 01:33:19;;;;;;;;;;;;;;;31.51;37.57;99392.16;4403694;32;35942;-89
2021/07/31 01:35:46;;;;;;;;;;;;;;;30.81;39.18;99393.44;4403797;32;34895;-89
2021/07/31 01:38:14;;;;;;;;;;;;;;;30.93;38.82;99395.66;4390967;32;35806;-89
2021/07/31 01:40:42;;;;;;;;;;;;;;;31.54;37.44;99380.97;4403643;32;33794;-89
2021/07/31 01:43:10;;;;;;;;;;;;;;;30.80;38.92;99397.13;4390980;32;34719;-89
2021/07/31 01:45:37;;;;;;;;;;;;;;;31.13;38.27;99385.97;4416709;32;35297;-89
2021/07/31 01:48:06;;;;;;;;;;;;;;;31.86;36.73;99387.72;4405640;32;34810;-89
2021/07/31 01:50:33;;;;;;;;;;;;;;;32.26;35.94;99395.31;4405838;32;32963;-89
2021/07/31 01:53:01;;;;;;;;;;;;;;;31.04;38.16;99386.28;4418368;32;33355;-89
2021/07/31 01:55:29;;;;;;;;;;;;;;;31.73;36.63;99391.13;4393544;32;34487;-90
2021/07/31 01:57:58;;;;;;;;;;;;;;;32.13;35.89;99386.06;4418647;32;34841;-88
2021/07/31 02:00:28;;;;;;;;;;;;;;;32.17;35.81;99386.53;4405232;32;33986;-89
2021/07/31 02:02:57;;;;;;;;;;;;;;;32.20;35.91;99388.00;4406890;32;34195;-89
2021/07/31 02:05:25;;;;;;;;;;;;;;;32.27;35.82;99387.00;4392909;32;35511;-89
2021/07/31 02:07:54;;;;;;;;;;;;;;;31.38;37.64;99374.84;4392931;32;34322;-89
2021/07/31 02:10:23;;;;;;;;;;;;;;;31.78;36.87;99377.94;4405057;32;34127;-89
2021/07/31 02:12:51;;;;;;;;;;;;;;;30.27;40.04;99389.13;4417925;32;34338;-89
2021/07/31 02:15:19;;;;;;;;;;;;;;;31.04;38.46;99389.78;4405571;32;35294;-89
2021/07/31 02:17:49;;;;;;;;;;;;;;;31.46;37.46;99385.47;4392952;32;34131;-89
2021/07/31 02:20:16;;;;;;;;;;;;;;;31.64;37.09;99370.75;4405516;32;33100;-89
2021/07/31 02:22:45;;;;;;;;;;;;;;;31.38;37.59;99374.84;4404887;32;35087;-89
2021/07/31 02:25:17;;;;;;;;;;;;;;;31.78;36.84;99366.34;4404212;32;34649;-89
2021/07/31 02:27:50;;;;;;;;;;;;;;;31.83;36.76;99371.97;4405292;32;34979;-89
2021/07/31 02:30:18;;;;;;;;;;;;;;;31.96;36.62;99380.16;4405448;32;34465;-89
2021/07/31 02:32:49;;;;;;;;;;;;;;;31.70;37.26;99379.91;4405390;32;35035;-89
2021/07/31 02:35:16;;;;;;;;;;;;;;;31.70;37.36;99371.84;4405301;32;34955;-89
2021/07/31 02:37:44;;;;;;;;;;;;;;;32.09;36.67;99392.88;4392678;32;34307;-89
2021/07/31 02:40:12;;;;;;;;;;;;;;;31.45;38.21;99397.28;4405130;32;33727;-89
2021/07/31 02:42:40;;;;;;;;;;;;;;;31.41;38.28;99414.84;4393113;32;34697;-89
2021/07/31 02:45:08;;;;;;;;;;;;;;;30.71;39.93;99440.44;4392442;32;34696;-89
2021/07/31 02:47:37;;;;;;;;;;;;;;;31.45;38.38;99434.94;4405452;32;34770;-89
2021/07/31 02:50:05;;;;;;;;;;;;;;;31.28;38.73;99431.66;4405404;32;33154;-89
2021/07/31 02:52:34;;;;;;;;;;;;;;;31.89;37.53;99446.59;4405390;32;34477;-89
2021/07/31 02:55:03;;;;;;;;;;;;;;;31.94;37.48;99446.03;4405117;32;34947;-89
2021/07/31 02:57:34;;;;;;;;;;;;;;;31.76;37.97;99457.25;4404368;32;35087;-89
2021/07/31 03:00:03;;;;;;;;;;;;;;;30.06;41.62;99450.81;4418002;32;34101;-89
2021/07/31 03:02:31;;;;;;;;;;;;;;;31.47;38.57;99434.75;4405447;32;33796;-89
2021/07/31 03:04:59;;;;;;;;;;;;;;;31.88;37.79;99436.84;4405234;32;34095;-89
2021/07/31 03:07:26;;;;;;;;;;;;;;;32.03;37.43;99428.69;4404929;32;34626;-89
2021/07/31 03:09:54;;;;;;;;;;;;;;;32.03;37.55;99431.38;4405082;32;32664;-89
2021/07/31 03:12:22;;;;;;;;;;;;;;;32.06;37.58;99432.84;4405060;32;34449;-89
2021/07/31 03:14:50;;;;;;;;;;;;;;;32.26;37.35;99425.78;4405279;32;35907;-89
2021/07/31 03:17:20;;;;;;;;;;;;;;;32.17;39.16;99426.12;4404686;32;36040;-89
2021/07/31 03:19:49;;;;;;;;;;;;;;;32.09;39.51;99449.44;4404273;32;33795;-89
2021/07/31 03:22:17;;;;;;;;;;;;;;;29.76;44.32;99493.66;4404850;32;35308;-89
2021/07/31 03:24:44;;;;;;;;;;;;;;;29.35;45.95;99489.34;4392538;32;33484;-89
2021/07/31 03:27:13;;;;;;;;;;;;;;;29.87;45.86;99466.41;4405067;32;34509;-89
2021/07/31 03:29:44;;;;;;;;;;;;;;;29.32;47.69;99457.53;4404715;32;33989;-89
2021/07/31 03:32:12;;;;;;;;;;;;;;;29.87;46.13;99473.63;4405230;32;35315;-88
2021/07/31 03:34:41;;;;;;;;;;;;;;;30.07;46.18;99472.09;4392472;32;35440;-89
2021/07/31 03:37:10;;;;;;;;;;;;;;;30.04;46.52;99455.53;4417685;32;35036;-89
2021/07/31 03:39:38;;;;;;;;;;;;;;;30.33;46.34;99462.84;4417286;32;33656;-89
2021/07/31 03:42:06;;;;;;;;;;;;;;;30.42;46.37;99472.47;4392431;32;33145;-89
2021/07/31 03:44:34;;;;;;;;;;;;;;;30.54;45.83;99482.78;4404967;32;35128;-89
2021/07/31 03:47:02;;;;;;;;;;;;;;;30.44;45.57;99491.09;4392174;32;33373;-89
2021/07/31 03:49:30;;;;;;;;;;;;;;;30.82;44.82;99491.09;4391925;32;33564;-89
2021/07/31 03:51:59;;;;;;;;;;;;;;;30.70;45.24;99466.50;4417534;32;34951;-90
2021/07/31 03:54:27;;;;;;;;;;;;;;;30.68;45.94;99460.47;4404987;32;35158;-89
2021/07/31 03:56:55;;;;;;;;;;;;;;;30.24;47.43;99461.25;4405249;32;33874;-89
2021/07/31 03:59:23;;;;;;;;;;;;;;;30.76;46.05;99441.56;4391960;32;33763;-89
2021/07/31 04:01:51;;;;;;;;;;;;;;;31.10;45.76;99432.09;4417581;32;33344;-89
2021/07/31 04:04:20;;;;;;;;;;;;;;;30.38;47.33;99432.72;4405124;32;35479;-89
2021/07/31 04:06:47;;;;;;;;;;;;;;;29.40;48.91;99430.63;4392502;32;34634;-89
2021/07/31 04:09:19;;;;;;;;;;;;;;;30.26;46.95;99429.63;4404919;32;32947;-89
2021/07/31 04:11:51;;;;;;;;;;;;;;;30.82;46.36;99431.94;4392337;32;33386;-90
2021/07/31 04:14:23;;;;;;;;;;;;;;;31.13;45.20;99425.50;4405201;32;34925;-90
2021/07/31 04:16:53;;;;;;;;;;;;;;;30.91;45.53;99429.94;4405105;32;34714;-90
2021/07/31 04:19:20;;;;;;;;;;;;;;;30.87;45.37;99424.09;4404957;32;33653;-90
2021/07/31 04:21:54;;;;;;;;;;;;;;;29.73;47.52;99443.84;4417337;32;34278;-89
2021/07/31 04:24:22;;;;;;;;;;;;;;;29.43;48.24;99448.22;4416811;32;35332;-90
2021/07/31 04:26:50;;;;;;;;;;;;;;;30.35;45.20;99462.63;4404482;32;34481;-90
2021/07/31 04:29:17;;;;;;;;;;;;;;;29.95;46.29;99477.06;4392060;32;33922;-89
2021/07/31 04:31:45;;;;;;;;;;;;;;;30.07;45.86;99484.72;4404356;32;35480;-89
2021/07/31 04:34:15;;;;;;;;;;;;;;;30.32;45.18;99474.59;4404750;32;35618;-90
2021/07/31 04:36:42;;;;;;;;;;;;;;;30.19;44.79;99485.94;4416693;32;35040;-88
2021/07/31 04:39:10;;;;;;;;;;;;;;;29.93;45.73;99492.53;4404713;32;34385;-89
2021/07/31 04:41:37;;;;;;;;;;;;;;;30.39;44.90;99490.81;4391897;32;34395;-89
2021/07/31 04:44:04;;;;;;;;;;;;;;;29.97;46.22;99493.84;4404114;32;34876;-89
2021/07/31 04:46:32;;;;;;;;;;;;;;;30.36;45.06;99485.81;4404613;32;34162;-90
2021/07/31 04:48:59;;;;;;;;;;;;;;;30.54;44.69;99489.03;4404173;32;34017;-89
2021/07/31 04:51:26;;;;;;;;;;;;;;;29.50;46.80;99497.47;4404128;32;35434;-89
2021/07/31 04:53:54;;;;;;;;;;;;;;;29.44;46.29;99487.47;4391661;32;34558;-89
2021/07/31 04:56:22;;;;;;;;;;;;;;;30.15;44.44;99480.13;4392042;32;34714;-89
2021/07/31 04:58:49;;;;;;;;;;;;;;;30.81;43.25;99494.78;4404097;32;32304;-89
2021/07/31 05:01:17;;;;;;;;;;;;;;;30.37;43.73;99492.84;4404306;32;34763;-89
2021/07/31 05:03:45;;;;;;;;;;;;;;;29.81;44.12;99499.31;4391612;32;35451;-89
2021/07/31 05:06:16;;;;;;;;;;;;;;;30.45;43.88;99487.41;4416604;32;35240;-89
2021/07/31 05:08:45;;;;;;;;;;;;;;;30.40;44.78;99497.87;4404284;32;33874;-89
2021/07/31 05:11:12;;;;;;;;;;;;;;;30.31;45.39;99497.94;4391278;32;33442;-89
2021/07/31 05:13:40;;;;;;;;;;;;;;;30.75;43.60;99498.19;4404032;32;35673;-89
2021/07/31 05:16:07;;;;;;;;;;;;;;;30.73;43.51;99501.09;4403865;32;35399;-89
2021/07/31 05:18:35;;;;;;;;;;;;;;;30.70;43.35;99495.22;4404027;32;34092;-89
2021/07/31 05:21:06;;;;;;;;;;;;;;;30.97;43.06;99499.97;4403429;32;35032;-89
2021/07/31 05:23:35;;;;;;;;;;;;;;;30.31;44.83;99502.47;4404242;32;35468;-89
2021/07/31 05:26:02;;;;;;;;;;;;;;;30.45;44.33;99490.09;4404557;32;35132;-89
2021/07/31 05:28:30;;;;;;;;;;;;;;;30.88;43.58;99495.69;4404025;32;32542;-90
2021/07/31 05:30:57;;;;;;;;;;;;;;;30.87;44.10;99494.03;4416778;32;34561;-89
2021/07/31 05:33:25;;;;;;;;;;;;;;;31.19;43.21;99492.00;4403898;32;34707;-89
2021/07/31 05:35:53;;;;;;;;;;;;;;;31.06;43.54;99491.81;4404051;32;34442;-89
2021/07/31 05:38:20;;;;;;;;;;;;;;;31.31;42.83;99484.25;4416499;32;33139;-89
2021/07/31 05:40:48;;;;;;;;;;;;;;;31.17;43.45;99485.16;4416071;32;34986;-89
2021/07/31 05:43:15;;;;;;;;;;;;;;;31.00;43.75;99482.63;4403922;32;34258;-89
2021/07/31 05:45:43;;;;;;;;;;;;;;;31.05;43.67;99492.88;4391280;32;35587;-89
2021/07/31 05:48:10;;;;;;;;;;;;;;;31.31;43.16;99490.50;4390517;32;35079;-89
2021/07/31 05:50:38;;;;;;;;;;;;;;;31.57;41.96;99489.13;4403598;32;34806;-89
2021/07/31 05:53:07;;;;;;;;;;;;;;;31.53;42.38;99487.84;4416060;32;35249;-89
2021/07/31 05:55:34;;;;;;;;;;;;;;;31.46;42.39;99492.31;4403234;32;34295;-90
2021/07/31 05:58:01;;;;;;;;;;;;;;;31.44;42.16;99488.97;4403449;32;33724;-89
2021/07/31 06:00:29;;;;;;;;;;;;;;;31.12;43.56;99483.00;4403705;32;34689;-89
2021/07/31 06:02:59;;;;;;;;;;;;;;;31.60;42.56;99474.44;4403533;32;34865;-89
2021/07/31 06:05:27;;;;;;;;;;;;;;;31.37;42.43;99477.31;4391159;32;34843;-89
2021/07/31 06:07:54;;;;;;;;;;;;;;;31.43;42.60;99476.53;4403555;32;34155;-89
2021/07/31 06:10:22;;;;;;;;;;;;;;;31.31;42.69;99470.81;4416248;32;34098;-89
2021/07/31 06:12:50;;;;;;;;;;;;;;;31.71;42.12;99474.00;4403090;32;34934;-89
2021/07/31 06:15:17;;;;;;;;;;;;;;;31.91;41.53;99473.31;4403508;32;35373;-89
2021/07/31 06:17:45;;;;;;;;;;;;;;;31.58;41.95;99479.22;4403440;32;34418;-89
2021/07/31 06:20:12;;;;;;;;;;;;;;;31.41;42.13;99474.03;4390861;32;34368;-88
2021/07/31 06:22:40;;;;;;;;;;;;;;;30.90;43.51;99487.44;4402982;32;35872;-90
2021/07/31 06:25:07;;;;;;;;;;;;;;;31.51;42.00;99479.09;4402915;32;34430;-89
2021/07/31 06:27:35;;;;;;;;;;;;;;;31.39;42.35;99473.41;4403137;32;33996;-89
2021/07/31 06:30:03;;;;;;;;;;;;;;;31.94;41.03;99473.78;4402861;32;34618;-89
2021/07/31 06:32:35;;;;;;;;;;;;;;;30.75;43.62;99480.22;4416227;32;34854;-89
2021/07/31 06:35:02;;;;;;;;;;;;;;;31.60;41.05;99472.59;4405130;32;35054;-90
2021/07/31 06:37:29;;;;;;;;;;;;;;;31.73;40.56;99457.63;4405712;32;33420;-89
2021/07/31 06:39:59;;;;;;;;;;;;;;;31.95;40.65;99458.44;4417735;32;35125;-88
2021/07/31 06:42:26;;;;;;;;;;;;;;;32.18;39.78;99463.66;4405407;32;33145;-89
2021/07/31 06:44:53;;;;;;;;;;;;;;;32.44;39.66;99465.72;4405326;32;35401;-88
2021/07/31 06:47:21;;;;;;;;;;;;;;;32.47;39.41;99469.88;4392936;32;33955;-89
2021/07/31 06:49:48;;;;;;;;;;;;;;;32.43;38.93;99465.88;4404608;32;34713;-89
2021/07/31 06:52:16;;;;;;;;;;;;;;;32.33;38.99;99466.25;4417714;32;35658;-89
2021/07/31 06:54:44;;;;;;;;;;;;;;;32.21;39.27;99468.63;4417844;32;34688;-89
2021/07/31 06:57:11;;;;;;;;;;;;;;;32.38;39.03;99469.19;4405147;32;34560;-89
2021/07/31 06:59:38;;;;;;;;;;;;;;;32.60;38.38;99464.56;4405081;32;34869;-89
2021/07/31 07:02:06;;;;;;;;;;;;;;;32.49;38.17;99475.91;4405559;32;35854;-89
2021/07/31 07:04:34;;;;;;;;;;;;;;;32.39;39.31;99473.56;4405401;32;34453;-89
2021/07/31 07:07:02;;;;;;;;;;;;;;;32.36;39.30;99475.81;4405687;32;33612;-89
2021/07/31 07:09:29;;;;;;;;;;;;;;;32.23;39.50;99482.78;4405999;32;34620;-89
2021/07/31 07:11:56;;;;;;;;;;;;;;;31.68;40.53;99484.31;4418348;32;35186;-89
2021/07/31 07:14:24;;;;;;;;;;;;;;;32.08;40.21;99487.38;4405591;32;34248;-89
2021/07/31 07:16:51;;;;;;;;;;;;;;;32.03;40.28;99485.28;4380395;32;35196;-89
2021/07/31 07:19:19;;;;;;;;;;;;;;;32.02;40.46;99483.59;4406066;32;34688;-89
2021/07/31 07:21:46;;;;;;;;;;;;;;;32.12;40.57;99497.56;4405068;32;34866;-89
2021/07/31 07:24:14;;;;;;;;;;;;;;;32.17;40.38;99494.31;4392715;32;32918;-89
2021/07/31 07:26:41;;;;;;;;;;;;;;;31.84;40.67;99494.00;4392016;32;33695;-89
2021/07/31 07:29:09;;;;;;;;;;;;;;;31.88;40.62;99488.00;4404527;32;35432;-89
2021/07/31 07:31:37;;;;;;;;;;;;;;;31.58;41.15;99489.97;4404746;32;33948;-89
2021/07/31 07:34:05;;;;;;;;;;;;;;;32.08;40.17;99495.44;4417521;32;35305;-90
2021/07/31 07:36:32;;;;;;;;;;;;;;;31.54;41.00;99484.13;4404830;32;33738;-90
2021/07/31 07:39:00;;;;;;;;;;;;;;;31.12;42.27;99497.28;4417638;32;35837;-89
2021/07/31 07:41:28;;;;;;;;;;;;;;;31.34;41.60;99499.19;4404875;32;35746;-89
2021/07/31 07:43:55;;;;;;;;;;;;;;;31.08;42.41;99497.87;4392175;32;35186;-89
2021/07/31 07:46:22;;;;;;;;;;;;;;;31.37;41.69;99502.34;4404168;32;33889;-89
2021/07/31 07:48:50;;;;;;;;;;;;;;;30.42;43.89;99499.34;4392145;32;34704;-90
2021/07/31 07:51:17;;;;;;;;;;;;;;;31.02;42.70;99495.88;4404986;32;34934;-89
2021/07/31 07:53:45;;;;;;;;;;;;;;;31.54;41.42;99497.59;4404534;32;35912;-89
2021/07/31 07:56:12;;;;;;;;;;;;;;;31.72;40.89;99496.34;4392284;32;34185;-89
2021/07/31 07:58:40;;;;;;;;;;;;;;;31.34;41.61;99502.75;4404863;32;34190;-90
2021/07/31 08:01:08;;;;;;;;;;;;;;;32.04;39.96;99499.56;4417419;32;35187;-89
2021/07/31 08:03:36;;;;;;;;;;;;;;;32.51;38.71;99491.88;4404796;32;34434;-89
2021/07/31 08:06:04;;;;;;;;;;;;;;;32.55;38.51;99514.72;4404548;32;33713;-89
2021/07/31 08:08:31;;;;;;;;;;;;;;;32.22;40.33;99526.09;4404462;32;35898;-89
2021/07/31 08:10:59;;;;;;;;;;;;;;;32.26;40.66;99530.06;4404544;32;34874;-89
2021/07/31 08:13:26;;;;;;;;;;;;;;;32.38;39.64;99523.09;4392121;32;34756;-89
2021/07/31 08:15:53;;;;;;;;;;;;;;;32.80;38.64;99523.19;4404628;32;33812;-89
2021/07/31 08:18:21;;;;;;;;;;;;;;;32.60;39.30;99532.00;4404733;32;35230;-90
2021/07/31 08:20:49;;;;;;;;;;;;;;;32.42;39.63;99537.84;4404432;32;34656;-89
2021/07/31 08:23:16;;;;;;;;;;;;;;;31.87;40.41;99536.69;4417231;32;34138;-89
2021/07/31 08:25:46;;;;;;;;;;;;;;;31.55;41.70;99530.72;4404652;32;33151;-89
2021/07/31 08:28:13;;;;;;;;;;;;;;;31.99;40.21;99524.41;4404269;32;32849;-90
2021/07/31 08:30:40;;;;;;;;;;;;;;;33.09;37.72;99521.28;4391921;32;34816;-89
2021/07/31 08:33:08;;;;;;;;;;;;;;;33.13;37.96;99517.16;4404240;32;34500;-89
2021/07/31 08:35:36;;;;;;;;;;;;;;;33.30;36.98;99521.22;4404669;32;34890;-88
2021/07/31 08:38:03;;;;;;;;;;;;;;;33.34;36.63;99512.72;4391458;32;35332;-89
2021/07/31 08:40:31;;;;;;;;;;;;;;;33.50;36.06;99509.66;4404182;32;35670;-90
2021/07/31 08:42:58;;;;;;;;;;;;;;;33.43;35.19;99508.81;4404365;32;34658;-89
2021/07/31 08:45:26;;;;;;;;;;;;;;;33.95;34.69;99503.75;4416899;32;34737;-89
2021/07/31 08:47:54;;;;;;;;;;;;;;;34.13;34.31;99503.97;4416721;32;35641;-89
2021/07/31 08:50:22;;;;;;;;;;;;;;;34.05;34.09;99504.19;4405016;32;35612;-90
2021/07/31 08:52:49;;;;;;;;;;;;;;;35.00;32.83;99503.06;4405397;32;33859;-90
2021/07/31 08:55:17;;;;;;;;;;;;;;;34.76;32.69;99507.28;4416058;32;33098;-89
2021/07/31 08:57:44;;;;;;;;;;;;;;;35.24;31.46;99506.94;4391527;32;34498;-89
2021/07/31 09:00:12;;;;;;;;;;;;;;;34.66;32.72;99506.88;4404098;32;33504;-89
2021/07/31 09:02:41;;;;;;;;;;;;;;;34.70;32.87;99490.00;4417146;32;35427;-89
2021/07/31 09:05:10;;;;;;;;;;;;;;;34.42;33.04;99501.09;4416995;32;32753;-89
2021/07/31 09:07:38;;;;;;;;;;;;;;;35.21;31.77;99501.09;4403521;32;35657;-90
2021/07/31 09:10:23;;;;;;;;;;;;;;;35.41;30.99;99488.34;4404032;32;35130;-90
2021/07/31 09:12:51;;;;;;;;;;;;;;;35.11;31.87;99507.00;4404008;32;33822;-89
2021/07/31 09:15:36;;;;;;;;;;;;;;;35.36;31.90;99500.88;4404172;32;34993;-90
2021/07/31 09:18:23;;;;;;;;;;;;;;;35.58;31.40;99494.09;4404262;32;35327;-90
2021/07/31 09:20:56;;;;;;;;;;;;;;;35.64;30.83;99495.09;4404149;32;34367;-90
2021/07/31 09:23:34;;;;;;;;;;;;;;;35.91;29.35;99503.91;4404193;32;34539;-90
2021/07/31 09:26:02;;;;;;;;;;;;;;;35.64;29.75;99492.38;4404253;32;33287;-90
2021/07/31 09:28:30;;;;;;;;;;;;;;;35.97;29.20;99485.09;4404292;32;33835;-90
2021/07/31 09:30:57;;;;;;;;;;;;;;;36.08;28.11;99482.50;4403501;32;36022;-90
2021/07/31 09:33:25;;;;;;;;;;;;;;;36.34;27.74;99496.06;4403659;32;35210;-89
2021/07/31 09:36:00;;;;;;;;;;;;;;;35.22;29.59;99505.47;4403713;32;34004;-90
2021/07/31 09:38:37;;;;;;;;;;;;;;;34.51;30.95;99499.81;4416693;32;34990;-90
2021/07/31 09:41:20;;;;;;;;;;;;;;;33.88;31.52;99508.31;4403861;32;34901;-90
2021/07/31 09:44:18;;;;;;;;;;;;;;;34.08;30.94;99497.53;4390926;32;35297;-89
2021/07/31 09:46:54;;;;;;;;;;;;;;;35.80;28.48;99491.03;4400395;32;33762;-90
2021/07/31 09:49:22;;;;;;;;;;;;;;;35.85;29.85;99491.25;4403534;32;34496;-90
2021/07/31 09:51:50;;;;;;;;;;;;;;;35.88;29.88;99492.69;4391014;32;34711;-90
2021/07/31 09:54:19;;;;;;;;;;;;;;;35.83;29.92;99492.47;4403747;32;34896;-90
2021/07/31 09:56:47;;;;;;;;;;;;;;;36.04;29.53;99496.72;4403800;32;33601;-90
2021/07/31 09:59:15;;;;;;;;;;;;;;;36.17;29.65;99487.66;4403527;32;35773;-90
2021/07/31 10:01:49;;;;;;;;;;;;;;;35.14;31.98;99503.84;4416548;32;35130;-90
2021/07/31 10:04:18;;;;;;;;;;;;;;;35.20;31.90;99496.75;4416312;32;34306;-90
2021/07/31 10:06:45;;;;;;;;;;;;;;;36.44;29.84;99496.41;4404355;32;33644;-90
2021/07/31 10:09:12;;;;;;;;;;;;;;;36.75;29.08;99492.75;4405499;32;34576;-89
2021/07/31 10:11:40;;;;;;;;;;;;;;;36.85;28.41;99494.97;4405622;32;34538;-90
2021/07/31 10:14:08;;;;;;;;;;;;;;;37.27;27.49;99496.97;4405559;32;34429;-90
2021/07/31 10:16:37;;;;;;;;;;;;;;;37.49;27.24;99489.16;4405418;32;33684;-90
2021/07/31 10:19:06;;;;;;;;;;;;;;;37.05;27.56;99510.19;4405503;32;35257;-90
2021/07/31 10:21:34;;;;;;;;;;;;;;;37.07;27.80;99503.50;4392903;32;35914;-91
2021/07/31 10:24:06;;;;;;;;;;;;;;;36.97;27.50;99499.66;4405609;32;35125;-90
2021/07/31 10:26:34;;;;;;;;;;;;;;;36.43;28.59;99494.75;4406051;32;34949;-90
2021/07/31 10:29:21;;;;;;;;;;;;;;;36.98;27.85;99494.00;4393537;32;34471;-90
2021/07/31 10:31:49;;;;;;;;;;;;;;;36.92;27.74;99487.59;4405232;32;36003;-89
2021/07/31 10:34:35;;;;;;;;;;;;;;;36.69;28.01;99495.53;4418190;32;35150;-90
2021/07/31 10:37:16;;;;;;;;;;;;;;;36.98;27.30;99487.72;4407087;32;32926;-90
2021/07/31 10:39:43;;;;;;;;;;;;;;;36.66;27.64;99493.25;4392893;32;34362;-90
2021/07/31 10:42:11;;;;;;;;;;;;;;;36.26;28.16;99499.91;4405229;32;35875;-90
2021/07/31 10:44:38;;;;;;;;;;;;;;;36.51;27.86;99502.62;4405231;32;34759;-90
2021/07/31 10:47:21;;;;;;;;;;;;;;;36.21;27.91;99499.72;4405260;32;32521;-90
2021/07/31 10:49:49;;;;;;;;;;;;;;;36.52;27.19;99501.53;4406903;32;34568;-91
2021/07/31 10:52:35;;;;;;;;;;;;;;;36.98;26.30;99494.00;4405623;32;35226;-90
2021/07/31 10:55:03;;;;;;;;;;;;;;;36.76;26.27;99502.56;4405367;32;33179;-90
2021/07/31 10:58:03;;;;;;;;;;;;;;;36.22;27.21;99504.91;4405282;32;34424;-90
2021/07/31 11:00:34;;;;;;;;;;;;;;;37.19;26.07;99498.13;4405452;32;34202;-90
2021/07/31 11:03:05;;;;;;;;;;;;;;;36.27;27.56;99499.66;4404966;32;35017;-90
2021/07/31 11:06:06;;;;;;;;;;;;;;;36.86;27.13;99493.91;4404808;32;33028;-90
2021/07/31 11:08:34;;;;;;;;;;;;;;;37.10;26.86;99494.88;4392416;32;33702;-90
2021/07/31 11:11:15;;;;;;;;;;;;;;;37.14;27.36;99495.25;4417632;32;34189;-91
2021/07/31 11:13:43;;;;;;;;;;;;;;;37.29;26.54;99496.75;4405428;32;33989;-90
2021/07/31 11:16:13;;;;;;;;;;;;;;;36.37;28.26;99496.47;4406662;32;34341;-90
2021/07/31 11:18:44;;;;;;;;;;;;;;;37.38;27.01;99487.25;4391997;32;33999;-91
2021/07/31 11:21:18;;;;;;;;;;;;;;;37.69;26.18;99485.34;4417752;32;33789;-90
2021/07/31 11:23:47;;;;;;;;;;;;;;;37.68;26.52;99491.84;4404993;32;35748;-91
2021/07/31 11:26:34;;;;;;;;;;;;;;;36.94;27.57;99482.75;4417613;32;34654;-90
2021/07/31 11:29:02;;;;;;;;;;;;;;;37.33;27.00;99484.41;4417762;32;34862;-91
2021/07/31 11:31:30;;;;;;;;;;;;;;;37.79;25.46;99485.66;4404657;32;34643;-90
2021/07/31 11:33:58;;;;;;;;;;;;;;;37.43;25.56;99488.22;4417737;32;35166;-91
2021/07/31 11:36:26;;;;;;;;;;;;;;;38.41;23.87;99482.53;4404552;32;34999;-91
2021/07/31 11:38:53;;;;;;;;;;;;;;;38.16;24.35;99474.59;4404779;32;34462;-91
2021/07/31 11:41:21;;;;;;;;;;;;;;;38.88;23.09;99473.50;4392003;32;34838;-90
2021/07/31 11:43:49;;;;;;;;;;;;;;;38.20;24.20;99473.06;4405087;32;35718;-91
2021/07/31 11:46:23;;;;;;;;;;;;;;;38.69;23.20;99466.53;4405117;32;35063;-91
2021/07/31 11:48:51;;;;;;;;;;;;;;;38.16;23.99;99463.72;4404811;32;34707;-91
2021/07/31 11:51:18;;;;;;;;;;;;;;;38.09;24.25;99482.00;4404814;32;34957;-91
2021/07/31 11:53:46;;;;;;;;;;;;;;;38.90;22.99;99479.53;4404869;32;35017;-88
2021/07/31 11:56:17;;;;;;;;;;;;;;;38.81;23.52;99480.16;4404909;32;34511;-88
2021/07/31 11:58:45;;;;;;;;;;;;;;;38.79;22.95;99472.22;4404784;32;34186;-88
2021/07/31 12:01:13;;;;;;;;;;;;;;;38.93;22.72;99472.78;4406307;32;35743;-89
2021/07/31 12:03:41;;;;;;;;;;;;;;;38.16;24.03;99477.31;4406079;32;34933;-91
2021/07/31 12:06:27;;;;;;;;;;;;;;;38.69;23.32;99471.97;4406204;32;34662;-91
2021/07/31 12:09:02;;;;;;;;;;;;;;;39.27;22.87;99472.94;4417435;32;31928;-91
2021/07/31 12:11:30;;;;;;;;;;;;;;;38.32;23.91;99477.69;4404453;32;34025;-91
2021/07/31 12:13:57;;;;;;;;;;;;;;;38.91;23.09;99473.00;4404841;32;36099;-91
2021/07/31 12:16:26;;;;;;;;;;;;;;;39.06;22.55;99467.03;4392350;32;34716;-91
2021/07/31 12:18:53;;;;;;;;;;;;;;;39.65;21.91;99467.91;4404888;32;33980;-91
2021/07/31 12:21:25;;;;;;;;;;;;;;;39.75;21.78;99458.00;4392502;32;35915;-91
2021/07/31 12:23:53;;;;;;;;;;;;;;;39.69;21.88;99466.34;4404413;32;34767;-91
2021/07/31 12:26:30;;;;;;;;;;;;;;;39.79;22.16;99473.88;4404811;32;34446;-91
2021/07/31 12:28:57;;;;;;;;;;;;;;;39.54;22.57;99477.78;4417089;32;33955;-91
2021/07/31 12:31:25;;;;;;;;;;;;;;;38.94;23.28;99476.34;4416146;32;34316;-91
2021/07/31 12:33:53;;;;;;;;;;;;;;;38.68;23.54;99482.03;4404521;32;35347;-91
2021/07/31 12:36:21;;;;;;;;;;;;;;;38.28;24.11;99476.50;4416766;32;35265;-91
2021/07/31 12:38:51;;;;;;;;;;;;;;;38.75;23.41;99476.50;4392106;32;34154;-92
2021/07/31 12:41:23;;;;;;;;;;;;;;;38.42;23.85;99491.53;4403608;32;34879;-91
2021/07/31 12:43:52;;;;;;;;;;;;;;;39.38;22.25;99484.84;4404749;32;35041;-91
2021/07/31 12:46:20;;;;;;;;;;;;;;;39.47;22.27;99477.13;4404931;32;34146;-91
2021/07/31 12:48:47;;;;;;;;;;;;;;;39.61;21.90;99493.97;4404441;32;34835;-91
2021/07/31 12:51:15;;;;;;;;;;;;;;;37.50;23.78;99493.56;4391468;32;34875;-91
2021/07/31 12:53:42;;;;;;;;;;;;;;;39.09;21.91;99501.97;4404261;32;34289;-91
2021/07/31 12:56:10;;;;;;;;;;;;;;;37.89;23.17;99507.63;4391882;32;35954;-91
2021/07/31 12:58:38;;;;;;;;;;;;;;;39.08;21.79;99504.97;4392039;32;34618;-90